sensor_id;sensor_type;location;lat;lon;timestamp;pressure;altitude;pressure_sealevel;temperature;humidity
81379;BME280;70830;42.290;-71.354;2024-02-21T00:02:20;102671.81;;;-0.49;33.41
81379;BME280;70830;42.290;-71.354;2024-02-21T00:04:46;102644.16;;;-0.74;33.90
81379;BME280;70830;42.290;-71.354;2024-02-21T00:07:12;102660.59;;;-0.73;34.59
81379;BME280;70830;42.290;-71.354;2024-02-21T00:09:38;102630.22;;;-1.01;34.60
81379;BME280;70830;42.290;-71.354;2024-02-21T00:12:04;102671.53;;;-0.81;34.26
81379;BME280;70830;42.290;-71.354;2024-02-21T00:14:31;102680.03;;;-0.85;33.79
81379;BME280;70830;42.290;-71.354;2024-02-21T00:16:57;102664.03;;;-0.97;34.39
81379;BME280;70830;42.290;-71.354;2024-02-21T00:19:23;102661.69;;;-1.13;34.31
81379;BME280;70830;42.290;-71.354;2024-02-21T00:21:48;102683.50;;;-1.06;35.01
81379;BME280;70830;42.290;-71.354;2024-02-21T00:24:14;102698.94;;;-1.09;35.38
81379;BME280;70830;42.290;-71.354;2024-02-21T00:26:40;102692.63;;;-1.16;35.41
81379;BME280;70830;42.290;-71.354;2024-02-21T00:29:06;102690.41;;;-1.29;35.90
81379;BME280;70830;42.290;-71.354;2024-02-21T00:31:32;102697.56;;;-1.22;35.78
81379;BME280;70830;42.290;-71.354;2024-02-21T00:33:58;102678.81;;;-1.38;36.08
81379;BME280;70830;42.290;-71.354;2024-02-21T00:36:24;102705.84;;;-1.30;36.20
81379;BME280;70830;42.290;-71.354;2024-02-21T00:38:50;102703.91;;;-1.36;36.12
81379;BME280;70830;42.290;-71.354;2024-02-21T00:41:16;102708.00;;;-1.41;36.86
81379;BME280;70830;42.290;-71.354;2024-02-21T00:43:42;102705.19;;;-1.47;36.42
81379;BME280;70830;42.290;-71.354;2024-02-21T00:46:08;102686.25;;;-1.67;36.45
81379;BME280;70830;42.290;-71.354;2024-02-21T00:48:34;102700.91;;;-1.67;36.87
81379;BME280;70830;42.290;-71.354;2024-02-21T00:51:00;102677.59;;;-1.89;37.07
81379;BME280;70830;42.290;-71.354;2024-02-21T00:53:25;102711.50;;;-1.82;37.54
81379;BME280;70830;42.290;-71.354;2024-02-21T00:55:51;102714.78;;;-1.86;38.06
81379;BME280;70830;42.290;-71.354;2024-02-21T00:58:17;102689.00;;;-2.05;37.48
81379;BME280;70830;42.290;-71.354;2024-02-21T01:00:43;102721.53;;;-1.89;37.59
81379;BME280;70830;42.290;-71.354;2024-02-21T01:03:09;102713.50;;;-1.95;38.10
81379;BME280;70830;42.290;-71.354;2024-02-21T01:05:35;102699.59;;;-1.99;38.11
81379;BME280;70830;42.290;-71.354;2024-02-21T01:08:01;102724.03;;;-1.91;37.61
81379;BME280;70830;42.290;-71.354;2024-02-21T01:10:27;102691.31;;;-2.11;38.04
81379;BME280;70830;42.290;-71.354;2024-02-21T01:12:53;102703.81;;;-2.01;37.51
81379;BME280;70830;42.290;-71.354;2024-02-21T01:15:19;102717.06;;;-1.93;37.61
81379;BME280;70830;42.290;-71.354;2024-02-21T01:17:44;102724.31;;;-1.85;38.39
81379;BME280;70830;42.290;-71.354;2024-02-21T01:20:11;102720.78;;;-1.87;37.97
81379;BME280;70830;42.290;-71.354;2024-02-21T01:22:37;102733.25;;;-1.77;37.64
81379;BME280;70830;42.290;-71.354;2024-02-21T01:25:03;102720.09;;;-1.83;37.88
81379;BME280;70830;42.290;-71.354;2024-02-21T01:27:28;102750.91;;;-1.67;38.80
81379;BME280;70830;42.290;-71.354;2024-02-21T01:29:54;102757.84;;;-1.66;38.55
81379;BME280;70830;42.290;-71.354;2024-02-21T01:32:21;102761.34;;;-1.65;38.78
81379;BME280;70830;42.290;-71.354;2024-02-21T01:34:47;102753.50;;;-1.67;39.19
81379;BME280;70830;42.290;-71.354;2024-02-21T01:37:13;102757.84;;;-1.66;39.81
81379;BME280;70830;42.290;-71.354;2024-02-21T01:39:39;102739.19;;;-1.79;39.55
81379;BME280;70830;42.290;-71.354;2024-02-21T01:42:05;102776.00;;;-1.64;39.15
81379;BME280;70830;42.290;-71.354;2024-02-21T01:44:31;102757.41;;;-1.76;40.26
81379;BME280;70830;42.290;-71.354;2024-02-21T01:46:58;102753.88;;;-1.78;39.59
81379;BME280;70830;42.290;-71.354;2024-02-21T01:49:24;102768.91;;;-1.70;39.61
81379;BME280;70830;42.290;-71.354;2024-02-21T01:51:50;102756.19;;;-1.84;39.86
81379;BME280;70830;42.290;-71.354;2024-02-21T01:54:18;102761.31;;;-1.86;40.26
81379;BME280;70830;42.290;-71.354;2024-02-21T01:56:45;102746.16;;;-1.97;39.96
81379;BME280;70830;42.290;-71.354;2024-02-21T01:59:12;102776.88;;;-1.84;40.55
81379;BME280;70830;42.290;-71.354;2024-02-21T02:01:39;102769.75;;;-1.90;40.65
81379;BME280;70830;42.290;-71.354;2024-02-21T02:04:06;102755.16;;;-2.08;40.89
81379;BME280;70830;42.290;-71.354;2024-02-21T02:06:32;102766.63;;;-2.02;41.11
81379;BME280;70830;42.290;-71.354;2024-02-21T02:08:58;102744.34;;;-2.19;41.08
81379;BME280;70830;42.290;-71.354;2024-02-21T02:11:24;102771.53;;;-2.08;41.34
81379;BME280;70830;42.290;-71.354;2024-02-21T02:13:49;102753.50;;;-2.27;41.21
81379;BME280;70830;42.290;-71.354;2024-02-21T02:16:15;102780.69;;;-2.16;41.27
81379;BME280;70830;42.290;-71.354;2024-02-21T02:18:41;102778.78;;;-2.20;41.95
81379;BME280;70830;42.290;-71.354;2024-02-21T02:21:13;102785.56;;;-2.22;41.58
81379;BME280;70830;42.290;-71.354;2024-02-21T02:23:42;102791.56;;;-2.23;41.66
81379;BME280;70830;42.290;-71.354;2024-02-21T02:26:08;102750.19;;;-2.42;41.36
81379;BME280;70830;42.290;-71.354;2024-02-21T02:28:34;102783.81;;;-2.23;41.84
81379;BME280;70830;42.290;-71.354;2024-02-21T02:31:00;102787.19;;;-2.24;41.84
81379;BME280;70830;42.290;-71.354;2024-02-21T02:33:26;102784.47;;;-2.27;41.89
81379;BME280;70830;42.290;-71.354;2024-02-21T02:35:52;102746.56;;;-2.47;41.92
81379;BME280;70830;42.290;-71.354;2024-02-21T02:38:17;102785.28;;;-2.28;42.65
81379;BME280;70830;42.290;-71.354;2024-02-21T02:40:44;102779.81;;;-2.36;43.02
81379;BME280;70830;42.290;-71.354;2024-02-21T02:43:10;102772.84;;;-2.37;42.79
81379;BME280;70830;42.290;-71.354;2024-02-21T02:45:35;102763.91;;;-2.45;42.56
81379;BME280;70830;42.290;-71.354;2024-02-21T02:48:02;102795.28;;;-2.36;43.41
81379;BME280;70830;42.290;-71.354;2024-02-21T02:50:28;102795.22;;;-2.37;43.64
81379;BME280;70830;42.290;-71.354;2024-02-21T02:52:54;102788.13;;;-2.41;43.20
81379;BME280;70830;42.290;-71.354;2024-02-21T02:55:20;102795.88;;;-2.41;43.50
81379;BME280;70830;42.290;-71.354;2024-02-21T02:57:46;102789.63;;;-2.46;43.83
81379;BME280;70830;42.290;-71.354;2024-02-21T03:00:13;102773.72;;;-2.55;43.80
81379;BME280;70830;42.290;-71.354;2024-02-21T03:02:41;102788.63;;;-2.50;43.84
81379;BME280;70830;42.290;-71.354;2024-02-21T03:05:15;102792.94;;;-2.49;44.32
81379;BME280;70830;42.290;-71.354;2024-02-21T03:07:42;102788.41;;;-2.54;44.31
81379;BME280;70830;42.290;-71.354;2024-02-21T03:10:08;102791.00;;;-2.54;44.29
81379;BME280;70830;42.290;-71.354;2024-02-21T03:12:34;102794.38;;;-2.55;44.97
81379;BME280;70830;42.290;-71.354;2024-02-21T03:15:00;102761.53;;;-2.77;44.32
81379;BME280;70830;42.290;-71.354;2024-02-21T03:17:26;102757.00;;;-2.82;45.16
81379;BME280;70830;42.290;-71.354;2024-02-21T03:19:53;102788.56;;;-2.69;45.09
81379;BME280;70830;42.290;-71.354;2024-02-21T03:22:21;102760.31;;;-2.85;44.77
81379;BME280;70830;42.290;-71.354;2024-02-21T03:24:47;102807.63;;;-2.67;44.78
81379;BME280;70830;42.290;-71.354;2024-02-21T03:27:13;102802.09;;;-2.74;45.11
81379;BME280;70830;42.290;-71.354;2024-02-21T03:29:39;102800.41;;;-2.74;45.10
81379;BME280;70830;42.290;-71.354;2024-02-21T03:32:05;102809.69;;;-2.77;45.62
81379;BME280;70830;42.290;-71.354;2024-02-21T03:34:31;102788.38;;;-2.91;45.91
81379;BME280;70830;42.290;-71.354;2024-02-21T03:36:57;102811.09;;;-2.84;45.46
81379;BME280;70830;42.290;-71.354;2024-02-21T03:39:23;102804.09;;;-2.86;46.09
81379;BME280;70830;42.290;-71.354;2024-02-21T03:41:49;102806.44;;;-2.91;45.96
81379;BME280;70830;42.290;-71.354;2024-02-21T03:44:15;102808.00;;;-2.94;45.96
81379;BME280;70830;42.290;-71.354;2024-02-21T03:46:41;102807.84;;;-2.98;46.62
81379;BME280;70830;42.290;-71.354;2024-02-21T03:49:07;102784.19;;;-3.07;46.85
81379;BME280;70830;42.290;-71.354;2024-02-21T03:51:33;102777.00;;;-3.14;46.40
81379;BME280;70830;42.290;-71.354;2024-02-21T03:53:59;102805.00;;;-3.04;46.81
81379;BME280;70830;42.290;-71.354;2024-02-21T03:56:25;102804.94;;;-3.05;46.37
81379;BME280;70830;42.290;-71.354;2024-02-21T03:58:50;102782.91;;;-3.16;46.53
81379;BME280;70830;42.290;-71.354;2024-02-21T04:01:16;102789.75;;;-3.17;45.95
81379;BME280;70830;42.290;-71.354;2024-02-21T04:03:43;102799.25;;;-3.16;46.65
81379;BME280;70830;42.290;-71.354;2024-02-21T04:06:09;102803.75;;;-3.12;47.05
81379;BME280;70830;42.290;-71.354;2024-02-21T04:08:35;102808.97;;;-3.10;47.55
81379;BME280;70830;42.290;-71.354;2024-02-21T04:11:01;102804.72;;;-3.10;47.52
81379;BME280;70830;42.290;-71.354;2024-02-21T04:13:27;102773.66;;;-3.29;47.24
81379;BME280;70830;42.290;-71.354;2024-02-21T04:15:53;102794.00;;;-3.17;47.90
81379;BME280;70830;42.290;-71.354;2024-02-21T04:18:19;102771.97;;;-3.28;47.74
81379;BME280;70830;42.290;-71.354;2024-02-21T04:20:45;102801.84;;;-3.16;47.51
81379;BME280;70830;42.290;-71.354;2024-02-21T04:23:11;102789.38;;;-3.24;47.94
81379;BME280;70830;42.290;-71.354;2024-02-21T04:25:37;102800.72;;;-3.21;47.04
81379;BME280;70830;42.290;-71.354;2024-02-21T04:28:03;102790.03;;;-3.28;47.17
81379;BME280;70830;42.290;-71.354;2024-02-21T04:30:29;102784.28;;;-3.40;47.66
81379;BME280;70830;42.290;-71.354;2024-02-21T04:32:55;102807.06;;;-3.32;48.07
81379;BME280;70830;42.290;-71.354;2024-02-21T04:35:21;102812.22;;;-3.32;48.38
81379;BME280;70830;42.290;-71.354;2024-02-21T04:37:46;102810.88;;;-3.41;48.29
81379;BME280;70830;42.290;-71.354;2024-02-21T04:40:12;102811.03;;;-3.38;49.03
81379;BME280;70830;42.290;-71.354;2024-02-21T04:42:39;102822.31;;;-3.36;48.84
81379;BME280;70830;42.290;-71.354;2024-02-21T04:45:06;102780.66;;;-3.61;48.60
81379;BME280;70830;42.290;-71.354;2024-02-21T04:47:32;102836.72;;;-3.40;48.03
81379;BME280;70830;42.290;-71.354;2024-02-21T04:49:57;102818.31;;;-3.47;47.96
81379;BME280;70830;42.290;-71.354;2024-02-21T04:52:23;102819.22;;;-3.47;48.99
81379;BME280;70830;42.290;-71.354;2024-02-21T04:54:49;102815.50;;;-3.52;48.90
81379;BME280;70830;42.290;-71.354;2024-02-21T04:57:16;102813.59;;;-3.56;49.78
81379;BME280;70830;42.290;-71.354;2024-02-21T04:59:45;102787.56;;;-3.78;49.38
81379;BME280;70830;42.290;-71.354;2024-02-21T05:02:13;102804.28;;;-3.70;49.69
81379;BME280;70830;42.290;-71.354;2024-02-21T05:04:39;102821.19;;;-3.75;49.66
81379;BME280;70830;42.290;-71.354;2024-02-21T05:07:07;102803.94;;;-3.94;50.42
81379;BME280;70830;42.290;-71.354;2024-02-21T05:09:33;102790.56;;;-4.03;50.44
81379;BME280;70830;42.290;-71.354;2024-02-21T05:11:59;102793.88;;;-4.05;50.13
81379;BME280;70830;42.290;-71.354;2024-02-21T05:14:26;102784.72;;;-4.16;50.70
81379;BME280;70830;42.290;-71.354;2024-02-21T05:16:55;102816.00;;;-4.09;51.09
81379;BME280;70830;42.290;-71.354;2024-02-21T05:19:21;102816.56;;;-4.14;50.75
81379;BME280;70830;42.290;-71.354;2024-02-21T05:21:47;102800.88;;;-4.35;51.46
81379;BME280;70830;42.290;-71.354;2024-02-21T05:24:12;102825.09;;;-4.31;51.22
81379;BME280;70830;42.290;-71.354;2024-02-21T05:26:38;102830.31;;;-4.30;51.60
81379;BME280;70830;42.290;-71.354;2024-02-21T05:29:04;102791.38;;;-4.52;51.26
81379;BME280;70830;42.290;-71.354;2024-02-21T05:34:16;102803.22;;;-4.56;52.08
81379;BME280;70830;42.290;-71.354;2024-02-21T05:36:42;102793.47;;;-4.61;51.66
81379;BME280;70830;42.290;-71.354;2024-02-21T05:39:08;102797.31;;;-4.69;51.88
81379;BME280;70830;42.290;-71.354;2024-02-21T05:41:34;102834.25;;;-4.53;52.77
81379;BME280;70830;42.290;-71.354;2024-02-21T05:44:00;102832.13;;;-4.60;52.11
81379;BME280;70830;42.290;-71.354;2024-02-21T05:46:26;102835.53;;;-4.61;52.46
81379;BME280;70830;42.290;-71.354;2024-02-21T05:48:52;102835.34;;;-4.64;53.08
81379;BME280;70830;42.290;-71.354;2024-02-21T05:51:18;102829.16;;;-4.67;52.44
81379;BME280;70830;42.290;-71.354;2024-02-21T05:53:44;102830.66;;;-4.71;52.96
81379;BME280;70830;42.290;-71.354;2024-02-21T05:56:11;102834.69;;;-4.76;53.13
81379;BME280;70830;42.290;-71.354;2024-02-21T05:58:37;102816.00;;;-4.88;53.17
81379;BME280;70830;42.290;-71.354;2024-02-21T06:01:04;102827.44;;;-4.83;54.00
81379;BME280;70830;42.290;-71.354;2024-02-21T06:03:32;102801.91;;;-4.94;53.29
81379;BME280;70830;42.290;-71.354;2024-02-21T06:06:02;102834.91;;;-4.87;53.81
81379;BME280;70830;42.290;-71.354;2024-02-21T06:08:28;102824.44;;;-4.90;53.60
81379;BME280;70830;42.290;-71.354;2024-02-21T06:10:54;102817.34;;;-4.94;54.09
81379;BME280;70830;42.290;-71.354;2024-02-21T06:13:24;102780.16;;;-5.15;54.47
81379;BME280;70830;42.290;-71.354;2024-02-21T06:15:50;102809.81;;;-5.06;54.01
81379;BME280;70830;42.290;-71.354;2024-02-21T06:18:20;102808.84;;;-5.08;54.31
81379;BME280;70830;42.290;-71.354;2024-02-21T06:20:46;102792.84;;;-5.18;54.02
81379;BME280;70830;42.290;-71.354;2024-02-21T06:23:13;102803.72;;;-5.08;54.71
81379;BME280;70830;42.290;-71.354;2024-02-21T06:25:39;102791.50;;;-5.27;54.81
81379;BME280;70830;42.290;-71.354;2024-02-21T06:28:05;102759.75;;;-5.43;54.28
81379;BME280;70830;42.290;-71.354;2024-02-21T06:30:31;102817.03;;;-5.15;54.93
81379;BME280;70830;42.290;-71.354;2024-02-21T06:32:57;102816.88;;;-5.18;55.02
81379;BME280;70830;42.290;-71.354;2024-02-21T06:35:24;102817.59;;;-5.21;54.47
81379;BME280;70830;42.290;-71.354;2024-02-21T06:37:51;102806.53;;;-5.34;54.82
81379;BME280;70830;42.290;-71.354;2024-02-21T06:40:20;102795.91;;;-5.40;55.19
81379;BME280;70830;42.290;-71.354;2024-02-21T06:42:46;102825.41;;;-5.34;55.76
81379;BME280;70830;42.290;-71.354;2024-02-21T06:45:12;102822.91;;;-5.32;55.43
81379;BME280;70830;42.290;-71.354;2024-02-21T06:47:38;102809.59;;;-5.40;55.94
81379;BME280;70830;42.290;-71.354;2024-02-21T06:50:07;102807.66;;;-5.44;55.56
81379;BME280;70830;42.290;-71.354;2024-02-21T06:52:34;102811.75;;;-5.47;56.30
81379;BME280;70830;42.290;-71.354;2024-02-21T06:55:00;102824.31;;;-5.37;56.18
81379;BME280;70830;42.290;-71.354;2024-02-21T06:57:28;102795.75;;;-5.58;56.08
81379;BME280;70830;42.290;-71.354;2024-02-21T06:59:54;102830.09;;;-5.41;55.75
81379;BME280;70830;42.290;-71.354;2024-02-21T07:02:20;102821.84;;;-5.50;56.27
81379;BME280;70830;42.290;-71.354;2024-02-21T07:04:46;102809.91;;;-5.50;56.12
81379;BME280;70830;42.290;-71.354;2024-02-21T07:07:12;102810.88;;;-5.48;56.35
81379;BME280;70830;42.290;-71.354;2024-02-21T07:09:39;102785.53;;;-5.71;55.86
81379;BME280;70830;42.290;-71.354;2024-02-21T07:12:04;102772.34;;;-5.77;56.03
81379;BME280;70830;42.290;-71.354;2024-02-21T07:14:32;102778.81;;;-5.69;56.49
81379;BME280;70830;42.290;-71.354;2024-02-21T07:16:58;102809.44;;;-5.57;57.09
81379;BME280;70830;42.290;-71.354;2024-02-21T07:19:24;102805.56;;;-5.65;56.34
81379;BME280;70830;42.290;-71.354;2024-02-21T07:21:50;102800.41;;;-5.65;56.88
81379;BME280;70830;42.290;-71.354;2024-02-21T07:24:16;102786.16;;;-5.75;57.40
81379;BME280;70830;42.290;-71.354;2024-02-21T07:26:44;102789.59;;;-5.74;57.48
81379;BME280;70830;42.290;-71.354;2024-02-21T07:29:10;102762.09;;;-5.91;57.52
81379;BME280;70830;42.290;-71.354;2024-02-21T07:31:42;102776.50;;;-5.79;57.08
81379;BME280;70830;42.290;-71.354;2024-02-21T07:34:09;102772.06;;;-5.81;58.00
81379;BME280;70830;42.290;-71.354;2024-02-21T07:36:35;102780.84;;;-5.78;58.10
81379;BME280;70830;42.290;-71.354;2024-02-21T07:39:03;102750.75;;;-5.95;58.18
81379;BME280;70830;42.290;-71.354;2024-02-21T07:41:30;102763.06;;;-5.89;58.05
81379;BME280;70830;42.290;-71.354;2024-02-21T07:43:56;102771.94;;;-5.84;57.46
81379;BME280;70830;42.290;-71.354;2024-02-21T07:46:22;102763.78;;;-5.92;58.17
81379;BME280;70830;42.290;-71.354;2024-02-21T07:48:48;102778.47;;;-5.89;57.80
81379;BME280;70830;42.290;-71.354;2024-02-21T07:51:14;102776.63;;;-5.92;58.40
81379;BME280;70830;42.290;-71.354;2024-02-21T07:53:43;102781.47;;;-5.97;58.19
81379;BME280;70830;42.290;-71.354;2024-02-21T07:56:14;102759.84;;;-6.15;57.64
81379;BME280;70830;42.290;-71.354;2024-02-21T07:58:41;102787.25;;;-6.01;57.67
81379;BME280;70830;42.290;-71.354;2024-02-21T08:01:07;102782.72;;;-6.05;58.23
81379;BME280;70830;42.290;-71.354;2024-02-21T08:03:33;102781.84;;;-6.05;58.32
81379;BME280;70830;42.290;-71.354;2024-02-21T08:05:59;102764.78;;;-6.18;58.64
81379;BME280;70830;42.290;-71.354;2024-02-21T08:08:25;102786.88;;;-6.07;59.18
81379;BME280;70830;42.290;-71.354;2024-02-21T08:10:51;102781.28;;;-6.14;59.14
81379;BME280;70830;42.290;-71.354;2024-02-21T08:13:18;102783.22;;;-6.10;58.58
81379;BME280;70830;42.290;-71.354;2024-02-21T08:15:43;102772.34;;;-6.21;59.25
81379;BME280;70830;42.290;-71.354;2024-02-21T08:18:09;102768.97;;;-6.20;59.36
81379;BME280;70830;42.290;-71.354;2024-02-21T08:20:35;102764.44;;;-6.24;59.39
81379;BME280;70830;42.290;-71.354;2024-02-21T08:23:01;102776.50;;;-6.23;59.96
81379;BME280;70830;42.290;-71.354;2024-02-21T08:25:27;102758.75;;;-6.33;59.31
81379;BME280;70830;42.290;-71.354;2024-02-21T08:27:58;102778.25;;;-6.22;59.50
81379;BME280;70830;42.290;-71.354;2024-02-21T08:30:24;102799.47;;;-6.24;59.32
81379;BME280;70830;42.290;-71.354;2024-02-21T08:32:50;102810.56;;;-6.25;59.82
81379;BME280;70830;42.290;-71.354;2024-02-21T08:35:16;102780.09;;;-6.34;59.88
81379;BME280;70830;42.290;-71.354;2024-02-21T08:37:48;102802.56;;;-6.30;60.37
81379;BME280;70830;42.290;-71.354;2024-02-21T08:40:14;102771.84;;;-6.43;60.23
81379;BME280;70830;42.290;-71.354;2024-02-21T08:42:43;102786.19;;;-6.32;60.48
81379;BME280;70830;42.290;-71.354;2024-02-21T08:45:09;102804.25;;;-6.30;60.34
81379;BME280;70830;42.290;-71.354;2024-02-21T08:47:35;102769.44;;;-6.40;60.36
81379;BME280;70830;42.290;-71.354;2024-02-21T08:50:02;102786.00;;;-6.35;60.91
81379;BME280;70830;42.290;-71.354;2024-02-21T08:52:28;102787.22;;;-6.43;60.90
81379;BME280;70830;42.290;-71.354;2024-02-21T08:54:54;102783.84;;;-6.42;60.76
81379;BME280;70830;42.290;-71.354;2024-02-21T08:57:20;102784.59;;;-6.44;61.21
81379;BME280;70830;42.290;-71.354;2024-02-21T08:59:46;102779.25;;;-6.47;60.67
81379;BME280;70830;42.290;-71.354;2024-02-21T09:02:13;102801.81;;;-6.42;61.42
81379;BME280;70830;42.290;-71.354;2024-02-21T09:04:39;102796.69;;;-6.42;61.31
81379;BME280;70830;42.290;-71.354;2024-02-21T09:07:04;102797.13;;;-6.49;61.46
81379;BME280;70830;42.290;-71.354;2024-02-21T09:09:30;102810.13;;;-6.46;61.28
81379;BME280;70830;42.290;-71.354;2024-02-21T09:11:58;102805.81;;;-6.47;62.00
81379;BME280;70830;42.290;-71.354;2024-02-21T09:14:32;102803.66;;;-6.54;61.87
81379;BME280;70830;42.290;-71.354;2024-02-21T09:16:58;102800.00;;;-6.57;62.31
81379;BME280;70830;42.290;-71.354;2024-02-21T09:19:24;102780.41;;;-6.70;61.79
81379;BME280;70830;42.290;-71.354;2024-02-21T09:21:50;102796.78;;;-6.68;62.35
81379;BME280;70830;42.290;-71.354;2024-02-21T09:24:17;102815.09;;;-6.62;61.76
81379;BME280;70830;42.290;-71.354;2024-02-21T09:26:43;102791.34;;;-6.73;62.38
81379;BME280;70830;42.290;-71.354;2024-02-21T09:29:09;102816.69;;;-6.64;62.00
81379;BME280;70830;42.290;-71.354;2024-02-21T09:31:35;102835.81;;;-6.59;62.19
81379;BME280;70830;42.290;-71.354;2024-02-21T09:34:01;102775.94;;;-6.87;62.40
81379;BME280;70830;42.290;-71.354;2024-02-21T09:36:27;102803.81;;;-6.79;62.51
81379;BME280;70830;42.290;-71.354;2024-02-21T09:38:53;102826.09;;;-6.64;62.27
81379;BME280;70830;42.290;-71.354;2024-02-21T09:41:26;102826.78;;;-6.67;62.31
81379;BME280;70830;42.290;-71.354;2024-02-21T09:43:55;102824.28;;;-6.65;62.61
81379;BME280;70830;42.290;-71.354;2024-02-21T09:47:02;102811.72;;;-6.76;62.27
81379;BME280;70830;42.290;-71.354;2024-02-21T09:49:33;102824.22;;;-6.67;62.83
81379;BME280;70830;42.290;-71.354;2024-02-21T09:52:02;102821.84;;;-6.77;62.74
81379;BME280;70830;42.290;-71.354;2024-02-21T09:54:29;102828.84;;;-6.75;62.32
81379;BME280;70830;42.290;-71.354;2024-02-21T09:56:57;102836.63;;;-6.73;62.20
81379;BME280;70830;42.290;-71.354;2024-02-21T09:59:24;102840.47;;;-6.80;62.38
81379;BME280;70830;42.290;-71.354;2024-02-21T10:01:50;102852.63;;;-6.77;62.61
81379;BME280;70830;42.290;-71.354;2024-02-21T10:04:17;102804.72;;;-7.04;62.94
81379;BME280;70830;42.290;-71.354;2024-02-21T10:06:44;102851.44;;;-6.82;62.42
81379;BME280;70830;42.290;-71.354;2024-02-21T10:09:20;102824.81;;;-6.97;62.72
81379;BME280;70830;42.290;-71.354;2024-02-21T10:11:49;102841.09;;;-6.97;63.34
81379;BME280;70830;42.290;-71.354;2024-02-21T10:14:15;102863.38;;;-6.83;63.61
81379;BME280;70830;42.290;-71.354;2024-02-21T10:16:41;102869.28;;;-6.84;64.00
81379;BME280;70830;42.290;-71.354;2024-02-21T10:19:19;102882.91;;;-6.85;63.77
81379;BME280;70830;42.290;-71.354;2024-02-21T10:22:02;102838.84;;;-7.05;63.82
81379;BME280;70830;42.290;-71.354;2024-02-21T10:24:29;102874.25;;;-6.87;63.94
81379;BME280;70830;42.290;-71.354;2024-02-21T10:27:13;102874.25;;;-6.87;63.55
81379;BME280;70830;42.290;-71.354;2024-02-21T10:29:40;102870.56;;;-6.90;63.09
81379;BME280;70830;42.290;-71.354;2024-02-21T10:32:11;102855.13;;;-7.05;63.16
81379;BME280;70830;42.290;-71.354;2024-02-21T10:34:38;102883.09;;;-6.95;63.30
81379;BME280;70830;42.290;-71.354;2024-02-21T10:37:05;102881.22;;;-6.97;63.06
81379;BME280;70830;42.290;-71.354;2024-02-21T10:39:36;102881.91;;;-7.00;63.35
81379;BME280;70830;42.290;-71.354;2024-02-21T10:42:03;102879.25;;;-7.01;63.69
81379;BME280;70830;42.290;-71.354;2024-02-21T10:44:31;102875.63;;;-7.05;63.67
81379;BME280;70830;42.290;-71.354;2024-02-21T10:46:58;102860.34;;;-7.16;63.63
81379;BME280;70830;42.290;-71.354;2024-02-21T10:49:25;102887.53;;;-7.05;63.91
81379;BME280;70830;42.290;-71.354;2024-02-21T10:51:55;102887.53;;;-7.05;64.06
81379;BME280;70830;42.290;-71.354;2024-02-21T10:57:00;102875.72;;;-7.16;63.61
81379;BME280;70830;42.290;-71.354;2024-02-21T10:59:28;102887.16;;;-7.11;63.81
81379;BME280;70830;42.290;-71.354;2024-02-21T11:01:55;102891.38;;;-7.12;63.71
81379;BME280;70830;42.290;-71.354;2024-02-21T11:04:21;102871.94;;;-7.21;64.32
81379;BME280;70830;42.290;-71.354;2024-02-21T11:06:48;102865.84;;;-7.23;64.08
81379;BME280;70830;42.290;-71.354;2024-02-21T11:09:15;102876.38;;;-7.19;63.95
81379;BME280;70830;42.290;-71.354;2024-02-21T11:11:44;102856.78;;;-7.31;64.90
81379;BME280;70830;42.290;-71.354;2024-02-21T11:14:19;102891.00;;;-7.18;64.76
81379;BME280;70830;42.290;-71.354;2024-02-21T11:16:45;102874.88;;;-7.28;65.01
81379;BME280;70830;42.290;-71.354;2024-02-21T11:19:22;102876.09;;;-7.23;64.82
81379;BME280;70830;42.290;-71.354;2024-02-21T11:21:49;102854.81;;;-7.35;64.99
81379;BME280;70830;42.290;-71.354;2024-02-21T11:24:29;102872.75;;;-7.22;64.97
81379;BME280;70830;42.290;-71.354;2024-02-21T11:26:56;102872.34;;;-7.28;65.11
81379;BME280;70830;42.290;-71.354;2024-02-21T11:29:25;102894.25;;;-7.20;65.00
81379;BME280;70830;42.290;-71.354;2024-02-21T11:31:52;102868.59;;;-7.33;65.18
81379;BME280;70830;42.290;-71.354;2024-02-21T11:34:19;102888.81;;;-7.25;65.72
81379;BME280;70830;42.290;-71.354;2024-02-21T11:36:52;102837.44;;;-7.53;65.60
81379;BME280;70830;42.290;-71.354;2024-02-21T11:39:27;102889.72;;;-7.24;65.46
81379;BME280;70830;42.290;-71.354;2024-02-21T11:42:06;102897.19;;;-7.14;65.67
81379;BME280;70830;42.290;-71.354;2024-02-21T11:44:36;102870.19;;;-7.22;65.81
81379;BME280;70830;42.290;-71.354;2024-02-21T11:47:08;102886.34;;;-7.10;65.92
81379;BME280;70830;42.290;-71.354;2024-02-21T11:49:39;102882.41;;;-7.05;65.82
81379;BME280;70830;42.290;-71.354;2024-02-21T11:52:07;102900.88;;;-6.98;65.90
81379;BME280;70830;42.290;-71.354;2024-02-21T11:54:34;102900.66;;;-6.88;65.94
81379;BME280;70830;42.290;-71.354;2024-02-21T11:57:01;102872.38;;;-7.02;65.88
81379;BME280;70830;42.290;-71.354;2024-02-21T11:59:30;102900.44;;;-6.78;65.54
81379;BME280;70830;42.290;-71.354;2024-02-21T12:01:57;102900.84;;;-6.72;65.38
81379;BME280;70830;42.290;-71.354;2024-02-21T12:04:23;102885.47;;;-6.72;65.67
81379;BME280;70830;42.290;-71.354;2024-02-21T12:06:50;102896.00;;;-6.54;65.58
81379;BME280;70830;42.290;-71.354;2024-02-21T12:09:16;102918.06;;;-6.30;65.13
81379;BME280;70830;42.290;-71.354;2024-02-21T12:11:43;102913.66;;;-6.18;65.64
81379;BME280;70830;42.290;-71.354;2024-02-21T12:14:09;102907.78;;;-5.89;65.53
81379;BME280;70830;42.290;-71.354;2024-02-21T12:16:36;102922.88;;;-5.37;65.20
81379;BME280;70830;42.290;-71.354;2024-02-21T12:19:05;102898.22;;;-5.04;64.20
81379;BME280;70830;42.290;-71.354;2024-02-21T12:21:33;102887.13;;;-4.58;64.03
81379;BME280;70830;42.290;-71.354;2024-02-21T12:24:21;102901.56;;;-3.82;63.14
81379;BME280;70830;42.290;-71.354;2024-02-21T12:26:54;102905.53;;;-3.39;62.05
81379;BME280;70830;42.290;-71.354;2024-02-21T12:29:21;102914.81;;;-2.91;61.04
81379;BME280;70830;42.290;-71.354;2024-02-21T12:31:47;102896.53;;;-2.43;60.59
81379;BME280;70830;42.290;-71.354;2024-02-21T12:34:15;102880.84;;;-1.91;59.04
81379;BME280;70830;42.290;-71.354;2024-02-21T12:36:42;102889.22;;;-1.17;58.06